createdAt,value
2022-08-06T00:00:10.141Z,100033.81
2022-08-06T00:02:40.217Z,100018.19
2022-08-06T00:05:17.580Z,100018.19
2022-08-06T00:07:48.364Z,100023.59
2022-08-06T00:10:18.058Z,100031.72
2022-08-06T00:12:48.384Z,100026.81
2022-08-06T00:15:42.619Z,100023.59
2022-08-06T00:18:07.869Z,100019.00
2022-08-06T00:20:41.713Z,100020.63
2022-08-06T00:23:16.451Z,100019.25
2022-08-06T00:25:52.054Z,100025.78
2022-08-06T00:28:31.491Z,100023.06
2022-08-06T00:31:06.266Z,100023.09
2022-08-06T00:33:50.327Z,100026.87
2022-08-06T00:36:28.221Z,100026.87
2022-08-06T00:39:00.334Z,100010.69
2022-08-06T00:41:41.891Z,100018.53
2022-08-06T00:44:14.419Z,100026.66
2022-08-06T00:46:45.119Z,100017.25
2022-08-06T00:49:13.613Z,100024.22
2022-08-06T00:52:02.339Z,100019.09
2022-08-06T00:54:35.698Z,100024.78
2022-08-06T00:57:07.643Z,100015.31
2022-08-06T00:59:39.860Z,100002.97
2022-08-06T01:02:10.107Z,100025.97
2022-08-06T01:04:38.784Z,100024.66
2022-08-06T01:07:09.036Z,100025.47
2022-08-06T01:09:46.102Z,100015.81
2022-08-06T01:12:33.373Z,100019.59
2022-08-06T01:15:16.244Z,100016.09
2022-08-06T01:18:00.024Z,100022.34
2022-08-06T01:21:58.939Z,100021.59
2022-08-06T01:23:21.874Z,100024.56
2022-08-06T01:26:09.032Z,100026.19
2022-08-06T01:28:51.893Z,100024.59
2022-08-06T01:31:31.937Z,100030.28
2022-08-06T01:34:17.999Z,100031.38
2022-08-06T01:36:50.568Z,100024.38
2022-08-06T01:39:53.764Z,100012.25
2022-08-06T01:42:13.388Z,100025.75
2022-08-06T01:44:48.101Z,100017.34
2022-08-06T01:47:21.212Z,100017.13
2022-08-06T01:50:00.494Z,100021.69
2022-08-06T01:52:40.778Z,100033.56
2022-08-06T01:55:14.025Z,100027.63
2022-08-06T01:58:08.053Z,100027.09
2022-08-06T02:00:46.142Z,100028.44
2022-08-06T02:03:24.091Z,100016.31
2022-08-06T02:05:58.022Z,100017.13
2022-08-06T02:08:36.509Z,100014.44
2022-08-06T02:12:01.574Z,100017.66
2022-08-06T02:14:01.365Z,100008.47
2022-08-06T02:16:33.469Z,100007.94
2022-08-06T02:19:10.414Z,100006.84
2022-08-06T02:21:50.517Z,100010.09
2022-08-06T02:24:24.266Z,100011.69
2022-08-06T02:26:56.473Z,100008.97
2022-08-06T02:29:27.040Z,100011.13
2022-08-06T02:32:15.914Z,100008.69
2022-08-06T02:34:44.033Z,100017.03
2022-08-06T02:37:22.612Z,100010.28
2022-08-06T02:39:57.165Z,100022.69
2022-08-06T02:42:42.405Z,100016.75
2022-08-06T02:45:58.202Z,100013.47
2022-08-06T02:48:53.394Z,100020.50
2022-08-06T02:52:10.933Z,100019.41
2022-08-06T02:54:46.975Z,100020.75
2022-08-06T02:57:48.524Z,100019.41
2022-08-06T03:00:29.160Z,100021.53
2022-08-06T03:03:01.440Z,100019.38
2022-08-06T03:05:55.975Z,100019.94
2022-08-06T03:08:26.337Z,100014.25
2022-08-06T03:10:56.158Z,100022.34
2022-08-06T03:13:29.638Z,100014.53
2022-08-06T03:16:23.449Z,100029.88
2022-08-06T03:19:54.539Z,100022.59
2022-08-06T03:21:55.736Z,100023.66
2022-08-06T03:24:26.866Z,100015.25
2022-08-06T03:26:58.690Z,100023.34
2022-08-06T03:29:28.524Z,100027.41
2022-08-06T03:32:24.442Z,100027.37
2022-08-06T03:34:47.818Z,100024.97
2022-08-06T03:37:21.493Z,100029.28
2022-08-06T03:40:00.961Z,100030.06
2022-08-06T03:42:32.901Z,100032.50
2022-08-06T03:45:06.367Z,100047.56
2022-08-06T03:47:49.506Z,100059.62
2022-08-06T03:50:37.769Z,100068.75
2022-08-06T03:53:14.215Z,100068.69
2022-08-06T03:55:45.893Z,100077.59
2022-08-06T03:58:28.092Z,100097.50
2022-08-06T04:01:08.888Z,100082.84
2022-08-06T04:03:39.601Z,100069.34
2022-08-06T04:06:16.145Z,100087.50
2022-08-06T04:08:46.074Z,100079.88
2022-08-06T04:12:14.572Z,100101.22
2022-08-06T04:14:08.599Z,100105.84
2022-08-06T04:16:38.152Z,100104.97
2022-08-06T04:19:12.667Z,100100.09
2022-08-06T04:22:57.065Z,100107.81
2022-08-06T04:24:32.795Z,100101.34
2022-08-06T04:27:09.857Z,100109.19
2022-08-06T04:29:56.328Z,100106.06
2022-08-06T04:32:28.833Z,100116.31
2022-08-06T04:36:06.381Z,100108.59
2022-08-06T04:37:48.068Z,100118.91
2022-08-06T04:40:34.499Z,100121.69
2022-08-06T04:43:08.557Z,100118.31
2022-08-06T04:46:16.111Z,100124.81
2022-08-06T04:48:34.244Z,100131.00
2022-08-06T04:51:10.238Z,100135.94
2022-08-06T04:53:56.968Z,100132.66
2022-08-06T04:56:33.302Z,100126.91
2022-08-06T04:59:07.428Z,100121.59
2022-08-06T05:01:40.891Z,100126.50
2022-08-06T05:04:26.322Z,100121.59
2022-08-06T05:07:02.458Z,100125.84
2022-08-06T05:09:42.349Z,100124.97
2022-08-06T05:12:28.408Z,100117.88
2022-08-06T05:15:21.275Z,100130.56
2022-08-06T05:17:57.970Z,100132.03
2022-08-06T05:20:33.026Z,100126.25
2022-08-06T05:23:08.782Z,100130.38
2022-08-06T05:25:53.982Z,100133.28
2022-08-06T05:28:27.781Z,100133.97
2022-08-06T05:30:57.314Z,100135.31
2022-08-06T05:33:32.266Z,100132.56
2022-08-06T05:36:11.877Z,100137.91
2022-08-06T05:38:58.529Z,100146.38
2022-08-06T05:41:33.200Z,100141.66
2022-08-06T05:44:03.392Z,100146.47
2022-08-06T05:46:37.032Z,100151.19
2022-08-06T05:49:12.172Z,100146.91
2022-08-06T05:52:10.693Z,100146.56
2022-08-06T05:54:54.399Z,100153.72
2022-08-06T05:57:42.244Z,100154.31
2022-08-06T06:00:31.555Z,100149.44
2022-08-06T06:03:06.132Z,100147.78
2022-08-06T06:06:08.192Z,100158.87
2022-08-06T06:08:29.432Z,100155.59
2022-08-06T06:11:10.587Z,100158.97
2022-08-06T06:13:58.429Z,100159.72
2022-08-06T06:16:35.645Z,100164.38
2022-08-06T06:19:15.390Z,100161.69
2022-08-06T06:21:49.050Z,100166.25
2022-08-06T06:24:27.260Z,100160.66
2022-08-06T06:27:23.243Z,100154.88
2022-08-06T06:30:11.059Z,100147.50
2022-08-06T06:32:47.882Z,100149.47
2022-08-06T06:35:33.981Z,100155.84
2022-08-06T06:38:09.634Z,100167.72
2022-08-06T06:41:19.909Z,100162.59
2022-08-06T06:44:17.586Z,100172.81
2022-08-06T06:47:36.442Z,100164.25
2022-08-06T06:50:24.217Z,100174.19
2022-08-06T06:52:56.325Z,100152.28
2022-08-06T06:55:55.761Z,100171.16
2022-08-06T06:58:49.978Z,100170.81
2022-08-06T07:01:28.259Z,100171.00
2022-08-06T07:04:00.036Z,100164.41
2022-08-06T07:06:43.379Z,100170.84
2022-08-06T07:09:39.146Z,100168.28
2022-08-06T07:12:19.723Z,100179.19
2022-08-06T07:14:58.254Z,100162.66
2022-08-06T07:17:59.687Z,100170.38
2022-08-06T07:20:26.023Z,100178.56
2022-08-06T07:24:03.891Z,100174.91
2022-08-06T07:25:54.621Z,100170.97
2022-08-06T07:28:28.792Z,100183.41
2022-08-06T07:31:04.201Z,100174.53
2022-08-06T07:34:01.334Z,100177.62
2022-08-06T07:36:31.865Z,100175.47
2022-08-06T07:39:16.037Z,100175.78
2022-08-06T07:42:07.070Z,100189.59
2022-08-06T07:44:54.806Z,100180.47
2022-08-06T07:47:54.356Z,100179.09
2022-08-06T07:50:25.465Z,100175.47
2022-08-06T07:52:56.869Z,100174.38
2022-08-06T07:55:36.896Z,100177.78
2022-08-06T07:58:07.387Z,100176.94
2022-08-06T08:00:38.595Z,100172.87
2022-08-06T08:03:55.711Z,100174.75
2022-08-06T08:06:21.278Z,100178.00
2022-08-06T08:08:53.258Z,100187.91
2022-08-06T08:11:38.415Z,100178.12
2022-08-06T08:14:15.295Z,100181.81
2022-08-06T08:16:44.142Z,100194.56
2022-08-06T08:19:34.846Z,100186.22
2022-08-06T08:22:10.235Z,100191.81
2022-08-06T08:24:54.575Z,100190.53
2022-08-06T08:27:23.508Z,100188.41
2022-08-06T08:29:56.761Z,100197.03
2022-08-06T08:32:26.476Z,100178.81
2022-08-06T08:34:57.409Z,100186.06
2022-08-06T08:37:26.171Z,100188.94
2022-08-06T08:39:55.669Z,100200.97
2022-08-06T08:42:38.117Z,100202.94
2022-08-06T08:45:09.110Z,100205.16
2022-08-06T08:47:52.969Z,100199.28
2022-08-06T08:50:24.626Z,100205.28
2022-08-06T08:53:09.909Z,100201.06
2022-08-06T08:57:01.947Z,100196.56
2022-08-06T08:58:42.165Z,100212.12
2022-08-06T09:01:51.800Z,100206.47
2022-08-06T09:04:05.510Z,100195.53
2022-08-06T09:06:39.695Z,100187.31
2022-08-06T09:09:15.798Z,100189.34
2022-08-06T09:12:05.668Z,100198.16
2022-08-06T09:14:33.466Z,100197.22
2022-08-06T09:17:04.835Z,100201.50
2022-08-06T09:19:37.826Z,100192.41
2022-08-06T09:22:09.317Z,100197.59
2022-08-06T09:24:39.363Z,100202.16
2022-08-06T09:27:46.984Z,100200.41
2022-08-06T09:30:25.305Z,100187.81
2022-08-06T09:32:57.513Z,100189.97
2022-08-06T09:35:44.877Z,100193.50
2022-08-06T09:38:17.540Z,100200.28
2022-08-06T09:41:15.368Z,100199.25
2022-08-06T09:44:02.802Z,100198.16
2022-08-06T09:46:37.341Z,100195.28
2022-08-06T09:49:48.422Z,100194.84
2022-08-06T09:52:17.196Z,100194.75
2022-08-06T09:54:52.978Z,100198.28
2022-08-06T09:57:34.704Z,100202.63
2022-08-06T10:00:14.351Z,100191.97
2022-08-06T10:02:45.770Z,100200.66
2022-08-06T10:05:20.583Z,100196.94
2022-08-06T10:08:02.015Z,100191.19
2022-08-06T10:10:51.251Z,100189.31
2022-08-06T10:13:31.032Z,100195.81
2022-08-06T10:16:20.620Z,100187.19
2022-08-06T10:18:55.571Z,100192.84
2022-08-06T10:21:42.461Z,100197.91
2022-08-06T10:24:25.822Z,100198.88
2022-08-06T10:27:14.171Z,100183.94
2022-08-06T10:29:55.627Z,100178.84
2022-08-06T10:32:50.193Z,100184.31
2022-08-06T10:35:25.440Z,100190.53
2022-08-06T10:38:03.291Z,100188.97
2022-08-06T10:40:36.965Z,100177.41
2022-08-06T10:43:08.252Z,100184.09
2022-08-06T10:45:48.665Z,100183.56
2022-08-06T10:48:59.209Z,100190.84
2022-08-06T10:51:09.608Z,100196.87
2022-08-06T10:54:02.130Z,100196.44
2022-08-06T10:56:38.099Z,100200.09
2022-08-06T10:59:15.465Z,100189.81
2022-08-06T11:02:17.804Z,100193.69
2022-08-06T11:05:17.926Z,100183.28
2022-08-06T11:08:09.640Z,100190.38
2022-08-06T11:10:58.069Z,100181.16
2022-08-06T11:13:37.431Z,100189.50
2022-08-06T11:16:29.240Z,100187.84
2022-08-06T11:19:13.290Z,100184.38
2022-08-06T11:22:02.114Z,100177.22
2022-08-06T11:24:37.572Z,100177.31
2022-08-06T11:27:50.463Z,100175.78
2022-08-06T11:30:26.621Z,100173.78
2022-08-06T11:32:55.235Z,100170.13
2022-08-06T11:35:51.558Z,100170.06
2022-08-06T11:38:50.926Z,100169.16
2022-08-06T11:41:44.634Z,100167.00
2022-08-06T11:44:16.299Z,100174.94
2022-08-06T11:46:50.157Z,100176.44
2022-08-06T11:49:46.799Z,100155.94
2022-08-06T11:52:39.345Z,100169.84
2022-08-06T11:55:22.904Z,100173.34
2022-08-06T11:58:17.016Z,100165.25
2022-08-06T12:01:03.154Z,100166.91
2022-08-06T12:03:52.659Z,100158.63
2022-08-06T12:06:29.332Z,100164.00
2022-08-06T12:09:39.516Z,100163.75
2022-08-06T12:12:26.911Z,100159.97
2022-08-06T12:14:57.225Z,100170.97
2022-08-06T12:17:31.213Z,100162.56
2022-08-06T12:20:23.797Z,100165.09
2022-08-06T12:23:05.434Z,100163.56
2022-08-06T12:25:46.773Z,100162.37
2022-08-06T12:28:18.485Z,100167.38
2022-08-06T12:30:53.476Z,100163.81
2022-08-06T12:33:24.836Z,100167.91
2022-08-06T12:35:56.380Z,100161.22
2022-08-06T12:38:28.598Z,100167.97
2022-08-06T12:41:10.920Z,100165.56
2022-08-06T12:43:57.314Z,100157.22
2022-08-06T12:46:29.442Z,100164.94
2022-08-06T12:49:01.682Z,100160.78
2022-08-06T12:51:32.375Z,100162.81
2022-08-06T12:54:04.331Z,100152.19
2022-08-06T12:56:37.602Z,100160.72
2022-08-06T12:59:16.041Z,100139.13
2022-08-06T13:02:08.892Z,100147.50
2022-08-06T13:04:46.562Z,100169.97
2022-08-06T13:07:16.823Z,100168.88
2022-08-06T13:10:32.765Z,100151.94
2022-08-06T13:14:03.618Z,100171.03
2022-08-06T13:15:31.830Z,100175.22
2022-08-06T13:18:41.389Z,100175.06
2022-08-06T13:21:23.391Z,100171.53
2022-08-06T13:23:55.403Z,100170.41
2022-08-06T13:26:27.600Z,100167.91
2022-08-06T13:30:30.987Z,100162.66
2022-08-06T13:32:03.926Z,100177.59
2022-08-06T13:34:54.760Z,100174.59
2022-08-06T13:37:57.745Z,100179.66
2022-08-06T13:40:47.496Z,100180.31
2022-08-06T13:43:40.086Z,100172.66
2022-08-06T13:46:20.038Z,100180.31
2022-08-06T13:49:01.290Z,100167.03
2022-08-06T13:51:34.416Z,100167.03
2022-08-06T13:54:14.370Z,100177.31
2022-08-06T13:56:52.288Z,100184.69
2022-08-06T13:59:40.214Z,100179.37
2022-08-06T14:02:11.820Z,100164.56
2022-08-06T14:04:41.120Z,100176.75
2022-08-06T14:07:19.213Z,100163.38
2022-08-06T14:09:58.436Z,100177.69
2022-08-06T14:12:39.206Z,100186.94
2022-08-06T14:15:13.109Z,100173.22
2022-08-06T14:17:45.562Z,100184.91
2022-08-06T14:20:19.529Z,100194.06
2022-08-06T14:22:55.135Z,100185.75
2022-08-06T14:25:28.490Z,100186.03
2022-08-06T14:27:56.961Z,100186.13
2022-08-06T14:30:33.111Z,100181.50
2022-08-06T14:33:18.815Z,100184.91
2022-08-06T14:35:52.659Z,100188.97
2022-08-06T14:38:32.320Z,100200.38
2022-08-06T14:41:50.282Z,100200.06
2022-08-06T14:44:29.865Z,100195.81
2022-08-06T14:46:59.388Z,100207.88
2022-08-06T14:49:33.509Z,100199.53
2022-08-06T14:52:20.950Z,100208.25
2022-08-06T14:54:55.129Z,100213.16
2022-08-06T14:57:41.256Z,100203.16
2022-08-06T15:00:13.131Z,100209.13
2022-08-06T15:02:51.773Z,100208.81
2022-08-06T15:05:42.326Z,100222.66
2022-08-06T15:08:08.861Z,100216.31
2022-08-06T15:10:37.769Z,100221.31
2022-08-06T15:13:06.472Z,100221.16
2022-08-06T15:15:36.696Z,100229.56
2022-08-06T15:18:54.485Z,100219.56
2022-08-06T15:21:10.080Z,100219.75
2022-08-06T15:23:53.253Z,100214.59
2022-08-06T15:26:42.081Z,100231.47
2022-08-06T15:29:15.761Z,100238.25
2022-08-06T15:31:45.837Z,100219.59
2022-08-06T15:34:20.122Z,100225.88
2022-08-06T15:36:59.460Z,100230.87
2022-08-06T15:39:52.116Z,100241.13
2022-08-06T15:42:24.132Z,100233.84
2022-08-06T15:44:54.989Z,100220.97
2022-08-06T15:47:31.587Z,100233.87
2022-08-06T15:50:05.148Z,100229.19
2022-08-06T15:52:37.253Z,100231.25
2022-08-06T15:55:15.551Z,100232.84
2022-08-06T15:58:04.368Z,100222.88
2022-08-06T16:00:37.404Z,100221.72
2022-08-06T16:03:07.886Z,100221.44
2022-08-06T16:06:12.660Z,100215.47
2022-08-06T16:08:34.197Z,100227.19
2022-08-06T16:11:08.641Z,100232.19
2022-08-06T16:13:38.864Z,100214.63
2022-08-06T16:16:08.440Z,100227.34
2022-08-06T16:18:49.227Z,100237.16
2022-08-06T16:21:20.767Z,100233.63
2022-08-06T16:23:55.147Z,100247.47
2022-08-06T16:26:39.057Z,100233.81
2022-08-06T16:29:10.358Z,100246.78
2022-08-06T16:31:48.135Z,100246.59
2022-08-06T16:34:25.146Z,100252.19
2022-08-06T16:37:00.046Z,100244.28
2022-08-06T16:39:35.954Z,100248.78
2022-08-06T16:42:07.102Z,100245.91
2022-08-06T16:47:27.271Z,100232.81
2022-08-06T16:50:18.875Z,100246.97
2022-08-06T16:54:08.016Z,100248.06
2022-08-06T16:58:33.061Z,100264.22
2022-08-06T17:02:14.742Z,100270.16
2022-08-06T17:03:50.740Z,100264.41
2022-08-06T17:06:26.912Z,100270.84
2022-08-06T17:08:55.106Z,100282.94
2022-08-06T17:11:45.450Z,100281.13
2022-08-06T17:14:14.175Z,100281.97
2022-08-06T17:16:45.347Z,100278.53
2022-08-06T17:19:17.550Z,100286.12
2022-08-06T17:24:38.071Z,100284.16
2022-08-06T17:27:09.063Z,100300.94
2022-08-06T17:29:46.929Z,100296.75
2022-08-06T17:32:29.882Z,100290.09
2022-08-06T17:35:12.439Z,100299.78
2022-08-06T17:37:46.065Z,100297.25
2022-08-06T17:40:19.566Z,100299.84
2022-08-06T17:43:12.332Z,100302.16
2022-08-06T17:46:02.473Z,100272.84
2022-08-06T17:48:40.599Z,100312.16
2022-08-06T17:51:10.029Z,100299.91
2022-08-06T17:53:55.200Z,100301.97
2022-08-06T17:56:30.207Z,100314.56
2022-08-06T17:59:17.878Z,100321.81
2022-08-06T18:01:50.454Z,100321.19
2022-08-06T18:04:28.862Z,100317.84
2022-08-06T18:07:00.306Z,100326.34
2022-08-06T18:10:08.784Z,100317.06
2022-08-06T18:12:33.333Z,100332.91
2022-08-06T18:15:01.853Z,100334.88
2022-08-06T18:17:59.808Z,100333.97
2022-08-06T18:20:32.934Z,100335.59
2022-08-06T18:23:21.315Z,100350.31
2022-08-06T18:25:59.966Z,100346.31
2022-08-06T18:28:39.954Z,100345.34
2022-08-06T18:31:19.802Z,100351.12
2022-08-06T18:33:54.004Z,100354.19
2022-08-06T18:36:33.133Z,100353.94
2022-08-06T18:39:13.362Z,100358.91
2022-08-06T18:41:57.416Z,100351.16
2022-08-06T18:44:27.185Z,100368.25
2022-08-06T18:47:03.515Z,100366.34
2022-08-06T18:49:50.977Z,100367.28
2022-08-06T18:52:23.023Z,100382.50
2022-08-06T18:54:56.214Z,100387.09
2022-08-06T18:57:37.875Z,100380.91
2022-08-06T19:00:21.112Z,100390.13
2022-08-06T19:02:53.658Z,100386.91
2022-08-06T19:05:28.083Z,100399.97
2022-08-06T19:07:59.566Z,100408.12
2022-08-06T19:10:29.313Z,100405.69
2022-08-06T19:12:59.544Z,100413.59
2022-08-06T19:15:45.963Z,100414.69
2022-08-06T19:18:24.267Z,100417.94
2022-08-06T19:20:53.645Z,100419.03
2022-08-06T19:24:02.416Z,100423.09
2022-08-06T19:26:13.097Z,100424.72
2022-08-06T19:28:49.908Z,100425.28
2022-08-06T19:31:41.473Z,100416.09
2022-08-06T19:34:16.143Z,100423.97
2022-08-06T19:36:48.160Z,100428.84
2022-08-06T19:39:53.749Z,100438.62
2022-08-06T19:42:32.466Z,100428.34
2022-08-06T19:45:04.464Z,100425.38
2022-08-06T19:47:47.887Z,100434.59
2022-08-06T19:50:19.514Z,100432.72
2022-08-06T19:52:48.903Z,100429.75
2022-08-06T19:56:08.139Z,100439.50
2022-08-06T19:58:26.230Z,100438.44
2022-08-06T20:01:31.309Z,100425.16
2022-08-06T20:03:57.887Z,100433.28
2022-08-06T20:06:29.475Z,100445.19
2022-08-06T20:08:58.410Z,100437.63
2022-08-06T20:12:03.186Z,100412.44
2022-08-06T20:16:44.158Z,100448.44
2022-08-06T20:19:12.480Z,100451.97
2022-08-06T20:21:42.874Z,100449.25
2022-08-06T20:24:16.978Z,100460.31
2022-08-06T20:26:59.206Z,100463.59
2022-08-06T20:29:34.679Z,100470.59
2022-08-06T20:32:17.767Z,100471.13
2022-08-06T20:34:46.619Z,100471.41
2022-08-06T20:37:16.547Z,100473.81
2022-08-06T20:39:48.429Z,100468.41
2022-08-06T20:42:18.275Z,100476.97
2022-08-06T20:44:52.433Z,100473.19
2022-08-06T20:47:45.772Z,100473.16
2022-08-06T20:50:11.864Z,100485.34
2022-08-06T20:52:40.567Z,100479.91
2022-08-06T20:55:13.903Z,100489.06
2022-08-06T20:57:47.822Z,100486.38
2022-08-06T21:00:24.264Z,100489.31
2022-08-06T21:03:28.051Z,100490.91
2022-08-06T21:05:50.375Z,100490.88
2022-08-06T21:08:27.019Z,100492.22
2022-08-06T21:11:00.402Z,100493.84
2022-08-06T21:13:35.865Z,100494.59
2022-08-06T21:16:29.074Z,100493.75
2022-08-06T21:19:06.789Z,100496.69
2022-08-06T21:21:39.001Z,100491.75
2022-08-06T21:24:07.672Z,100483.56
2022-08-06T21:26:37.451Z,100486.34
2022-08-06T21:29:41.920Z,100495.72
2022-08-06T21:31:57.759Z,100495.75
2022-08-06T21:34:30.413Z,100493.50
2022-08-06T21:36:59.867Z,100494.25
2022-08-06T21:39:44.129Z,100499.09
2022-08-06T21:42:18.062Z,100496.38
2022-08-06T21:44:47.461Z,100495.25
2022-08-06T21:47:19.615Z,100499.03
2022-08-06T21:50:19.867Z,100494.37
2022-08-06T21:52:54.456Z,100500.66
2022-08-06T21:56:37.034Z,100508.06
2022-08-06T21:58:11.391Z,100509.72
2022-08-06T22:00:44.760Z,100511.28
2022-08-06T22:04:37.774Z,100514.19
2022-08-06T22:06:20.522Z,100514.75
2022-08-06T22:08:54.814Z,100518.69
2022-08-06T22:12:36.511Z,100513.72
2022-08-06T22:14:16.246Z,100522.94
2022-08-06T22:16:48.091Z,100519.63
2022-08-06T22:19:17.644Z,100518.06
2022-08-06T22:21:50.853Z,100511.56
2022-08-06T22:24:22.935Z,100519.22
2022-08-06T22:26:56.589Z,100528.56
2022-08-06T22:29:29.634Z,100534.53
2022-08-06T22:31:59.836Z,100527.69
2022-08-06T22:34:36.231Z,100515.81
2022-08-06T22:37:14.510Z,100524.72
2022-08-06T22:39:47.068Z,100529.47
2022-08-06T22:42:56.313Z,100526.75
2022-08-06T22:45:46.881Z,100530.47
2022-08-06T22:48:03.463Z,100517.19
2022-08-06T22:50:33.677Z,100533.06
2022-08-06T22:54:27.510Z,100538.94
2022-08-06T22:55:51.365Z,100535.16
2022-08-06T22:59:06.342Z,100535.09
2022-08-06T23:01:09.140Z,100543.69
2022-08-06T23:03:55.343Z,100539.44
2022-08-06T23:06:26.748Z,100538.47
2022-08-06T23:09:00.107Z,100528.44
2022-08-06T23:11:29.133Z,100521.53
2022-08-06T23:13:57.067Z,100533.75
2022-08-06T23:16:28.843Z,100520.22
2022-08-06T23:18:57.226Z,100529.84
2022-08-06T23:21:56.532Z,100525.75
2022-08-06T23:24:33.358Z,100526.59
2022-08-06T23:27:07.110Z,100524.91
2022-08-06T23:30:09.985Z,100524.16
2022-08-06T23:32:35.830Z,100536.25
2022-08-06T23:35:36.041Z,100533.31
2022-08-06T23:38:32.458Z,100536.25
2022-08-06T23:40:50.125Z,100519.94
2022-08-06T23:43:19.659Z,100542.37
2022-08-06T23:45:48.548Z,100546.56
2022-08-06T23:48:16.934Z,100548.16
2022-08-06T23:50:50.375Z,100556.81
2022-08-06T23:54:08.444Z,100553.81
2022-08-06T23:56:15.921Z,100555.41
2022-08-06T23:58:47.025Z,100563.66
